Capitan Miranda — CWBE — position and weather

sailwx.info

Track history (hours):
 
Tides and Currents Weather Stations Pressure Air Temp Water Temp Dewpoint Dewpoint Depression Visibility Wind Speed Wind Dir Waves Ship Positions

Capitan Miranda (Uruguay)

Staysail schooner. Training ship for Uruguayan Navy.

Last reported at 2019-Aug-23 01:02 UTC. Time now 2019-Aug-24 19:53 UTC.
Position N 41°16' W 071°02'.

; draft 3.8 m.

Type: Ship. MMSI: 770576100.

Date/timePositionNaut miles runAvg speedWind from/ knotsBaromVisibWave heightAir tempDewpointWater temp
2019-Aug-23 01:02N 41°16' W 071°02'0 9.5
2019-Aug-23 01:00N 41°16' W 071°02'5 9.5
2019-Aug-23 00:30N 41°18' W 071°07'  
2019-Aug-19 14:43N 41°16' W 071°48'2 7.5
2019-Aug-19 14:30N 41°16' W 071°50'4 7.8
2019-Aug-19 14:00N 41°15' W 071°55'3 7.0
2019-Aug-19 13:30N 41°14' W 071°60'3 6.9
2019-Aug-19 13:01N 41°15' W 072°04'4 8.1
2019-Aug-19 12:30N 41°19' W 072°05'3 4.7
2019-Aug-19 11:58N 41°21' W 072°06'0 0.0
2019-Aug-19 11:28N 41°21' W 072°06'0 0.0
2019-Aug-19 10:58N 41°21' W 072°06'0 0.0
2019-Aug-19 10:28N 41°21' W 072°06'0 0.0
2019-Aug-19 09:58N 41°21' W 072°06'0 0.0
2019-Aug-19 09:28N 41°21' W 072°06'0 0.0
2019-Aug-19 08:58N 41°21' W 072°06'0 0.0
2019-Aug-19 08:28N 41°21' W 072°06'0 0.0
2019-Aug-19 07:58N 41°21' W 072°06'0 0.0
2019-Aug-19 07:28N 41°21' W 072°06'0 0.0
2019-Aug-19 06:58N 41°21' W 072°06'0 0.0
2019-Aug-19 06:28N 41°21' W 072°05'0 0.0
2019-Aug-19 05:58N 41°21' W 072°06'0 0.0
2019-Aug-19 05:28N 41°21' W 072°06'0 0.0
2019-Aug-19 04:58N 41°21' W 072°06'0 0.0
2019-Aug-19 04:28N 41°21' W 072°06'  
2019-Aug-16 16:05N 41°21' W 072°06'0 0.0
2019-Aug-16 16:01N 41°21' W 072°06'1 2.1
2019-Aug-16 15:30N 41°20' W 072°05'3 5.9
2019-Aug-16 15:00N 41°17' W 072°04'0 0.1
2019-Aug-16 14:30N 41°17' W 072°04'0 0.0
2019-Aug-16 14:00N 41°17' W 072°04'2 3.8
2019-Aug-16 13:30N 41°15' W 072°04'4 8.5
2019-Aug-16 13:00N 41°14' W 071°59'510.2
2019-Aug-16 12:30N 41°15' W 071°52'6 9.9
2019-Aug-16 11:52N 41°16' W 071°44'4 9.4
2019-Aug-16 11:28N 41°17' W 071°39'22 2.5
2019-Aug-16 02:35N 40°55' W 071°34'1 9.9
2019-Aug-16 02:30N 40°54' W 071°35'6 8.6
2019-Aug-16 01:46N 40°48' W 071°37'10 3.6
2019-Aug-15 23:04N 40°44' W 071°48'3 8.9
2019-Aug-15 22:46N 40°42' W 071°51'4 8.9
2019-Aug-15 22:21N 40°40' W 071°54'4 7.8
2019-Aug-15 21:54N 40°37' W 071°58'90 8.5
2019-Aug-15 11:19N 39°30' W 073°15'3 9.4
2019-Aug-15 10:57N 39°28' W 073°18'16 9.3
2019-Aug-15 09:13N 39°16' W 073°33'28 8.9
2019-Aug-15 06:02N 38°56' W 073°58'4 8.8
2019-Aug-15 05:33N 38°54' W 074°02'25 9.0
2019-Aug-15 02:44N 38°47' W 074°34'19 9.1
2019-Aug-15 00:39N 38°46' W 074°58'2 8.1
2019-Aug-15 00:23N 38°46' W 075°01'9 8.0
2019-Aug-14 23:14N 38°55' W 075°05'7 7.3
2019-Aug-14 22:19N 39°01' W 075°09'4 8.1
2019-Aug-14 21:53N 39°04' W 075°10'7 8.8
2019-Aug-14 21:03N 39°10' W 075°16'110.0
2019-Aug-14 20:57N 39°11' W 075°16'510.7
2019-Aug-14 20:30N 39°15' W 075°19'611.8
2019-Aug-14 20:00N 39°19' W 075°24'611.7
2019-Aug-14 19:30N 39°24' W 075°30'611.2
2019-Aug-14 19:00N 39°28' W 075°34'510.7
2019-Aug-14 18:31N 39°34' W 075°33'4 8.1
2019-Aug-14 18:00N 39°33' W 075°38'4 7.5
2019-Aug-14 17:30N 39°33' W 075°43'4 7.2
2019-Aug-14 17:00N 39°32' W 075°48'2 3.5
2019-Aug-14 16:30N 39°32' W 075°50'2 4.1
2019-Aug-14 16:00N 39°31' W 075°53'4 7.2
2019-Aug-14 15:30N 39°29' W 075°56'4 8.9
2019-Aug-14 15:00N 39°26' W 076°00'4 8.9
2019-Aug-14 14:30N 39°23' W 076°05'5 9.2
2019-Aug-14 13:59N 39°21' W 076°10'5 9.1
2019-Aug-14 13:29N 39°17' W 076°14'5 9.5
2019-Aug-14 12:58N 39°12' W 076°15'5 8.7
2019-Aug-14 12:23N 39°09' W 076°20'3 8.4
2019-Aug-14 11:58N 39°10' W 076°24'4 8.1
2019-Aug-14 11:30N 39°11' W 076°29'4 7.8
2019-Aug-14 11:00N 39°14' W 076°33'4 7.1
2019-Aug-14 10:30N 39°17' W 076°35'1 1.9
2019-Aug-14 09:58N 39°17' W 076°37'0 0.0
2019-Aug-14 09:28N 39°17' W 076°37'0 0.0
2019-Aug-14 09:01N 39°17' W 076°37'  
Track history (hours):
 
Tides and Currents Weather Stations Pressure Air Temp Water Temp Dewpoint Dewpoint Depression Visibility Wind Speed Wind Dir Waves Ship Positions

Capitan Miranda (Uruguay)

Staysail schooner. Training ship for Uruguayan Navy.

Last reported at 2019-Aug-23 01:02 UTC. Time now 2019-Aug-24 19:53 UTC.
Position N 41°16' W 071°02'.

; draft 3.8 m.

Type: Ship. MMSI: 770576100.

Date/timePositionNaut miles runAvg speedWind from/ knotsBaromVisibWave heightAir tempDewpointWater temp
2019-Aug-23 01:02N 41°16' W 071°02'0 9.5
2019-Aug-23 01:00N 41°16' W 071°02'5 9.5
2019-Aug-23 00:30N 41°18' W 071°07'  
2019-Aug-19 14:43N 41°16' W 071°48'2 7.5
2019-Aug-19 14:30N 41°16' W 071°50'4 7.8
2019-Aug-19 14:00N 41°15' W 071°55'3 7.0
2019-Aug-19 13:30N 41°14' W 071°60'3 6.9
2019-Aug-19 13:01N 41°15' W 072°04'4 8.1
2019-Aug-19 12:30N 41°19' W 072°05'3 4.7
2019-Aug-19 11:58N 41°21' W 072°06'0 0.0
2019-Aug-19 11:28N 41°21' W 072°06'0 0.0
2019-Aug-19 10:58N 41°21' W 072°06'0 0.0
2019-Aug-19 10:28N 41°21' W 072°06'0 0.0
2019-Aug-19 09:58N 41°21' W 072°06'0 0.0
2019-Aug-19 09:28N 41°21' W 072°06'0 0.0
2019-Aug-19 08:58N 41°21' W 072°06'0 0.0
2019-Aug-19 08:28N 41°21' W 072°06'0 0.0
2019-Aug-19 07:58N 41°21' W 072°06'0 0.0
2019-Aug-19 07:28N 41°21' W 072°06'0 0.0
2019-Aug-19 06:58N 41°21' W 072°06'0 0.0
2019-Aug-19 06:28N 41°21' W 072°05'0 0.0
2019-Aug-19 05:58N 41°21' W 072°06'0 0.0
2019-Aug-19 05:28N 41°21' W 072°06'0 0.0
2019-Aug-19 04:58N 41°21' W 072°06'0 0.0
2019-Aug-19 04:28N 41°21' W 072°06'  
2019-Aug-16 16:05N 41°21' W 072°06'0 0.0
2019-Aug-16 16:01N 41°21' W 072°06'1 2.1
2019-Aug-16 15:30N 41°20' W 072°05'3 5.9
2019-Aug-16 15:00N 41°17' W 072°04'0 0.1
2019-Aug-16 14:30N 41°17' W 072°04'0 0.0
2019-Aug-16 14:00N 41°17' W 072°04'2 3.8
2019-Aug-16 13:30N 41°15' W 072°04'4 8.5
2019-Aug-16 13:00N 41°14' W 071°59'510.2
2019-Aug-16 12:30N 41°15' W 071°52'6 9.9
2019-Aug-16 11:52N 41°16' W 071°44'4 9.4
2019-Aug-16 11:28N 41°17' W 071°39'22 2.5
2019-Aug-16 02:35N 40°55' W 071°34'1 9.9
2019-Aug-16 02:30N 40°54' W 071°35'6 8.6
2019-Aug-16 01:46N 40°48' W 071°37'10 3.6
2019-Aug-15 23:04N 40°44' W 071°48'3 8.9
2019-Aug-15 22:46N 40°42' W 071°51'4 8.9
2019-Aug-15 22:21N 40°40' W 071°54'4 7.8
2019-Aug-15 21:54N 40°37' W 071°58'90 8.5
2019-Aug-15 11:19N 39°30' W 073°15'3 9.4
2019-Aug-15 10:57N 39°28' W 073°18'16 9.3
2019-Aug-15 09:13N 39°16' W 073°33'28 8.9
2019-Aug-15 06:02N 38°56' W 073°58'4 8.8
2019-Aug-15 05:33N 38°54' W 074°02'25 9.0
2019-Aug-15 02:44N 38°47' W 074°34'19 9.1
2019-Aug-15 00:39N 38°46' W 074°58'2 8.1
2019-Aug-15 00:23N 38°46' W 075°01'9 8.0
2019-Aug-14 23:14N 38°55' W 075°05'7 7.3
2019-Aug-14 22:19N 39°01' W 075°09'4 8.1
2019-Aug-14 21:53N 39°04' W 075°10'7 8.8
2019-Aug-14 21:03N 39°10' W 075°16'110.0
2019-Aug-14 20:57N 39°11' W 075°16'510.7
2019-Aug-14 20:30N 39°15' W 075°19'611.8
2019-Aug-14 20:00N 39°19' W 075°24'611.7
2019-Aug-14 19:30N 39°24' W 075°30'611.2
2019-Aug-14 19:00N 39°28' W 075°34'510.7
2019-Aug-14 18:31N 39°34' W 075°33'4 8.1
2019-Aug-14 18:00N 39°33' W 075°38'4 7.5
2019-Aug-14 17:30N 39°33' W 075°43'4 7.2
2019-Aug-14 17:00N 39°32' W 075°48'2 3.5
2019-Aug-14 16:30N 39°32' W 075°50'2 4.1
2019-Aug-14 16:00N 39°31' W 075°53'4 7.2
2019-Aug-14 15:30N 39°29' W 075°56'4 8.9
2019-Aug-14 15:00N 39°26' W 076°00'4 8.9
2019-Aug-14 14:30N 39°23' W 076°05'5 9.2
2019-Aug-14 13:59N 39°21' W 076°10'5 9.1
2019-Aug-14 13:29N 39°17' W 076°14'5 9.5
2019-Aug-14 12:58N 39°12' W 076°15'5 8.7
2019-Aug-14 12:23N 39°09' W 076°20'3 8.4
2019-Aug-14 11:58N 39°10' W 076°24'4 8.1
2019-Aug-14 11:30N 39°11' W 076°29'4 7.8
2019-Aug-14 11:00N 39°14' W 076°33'4 7.1
2019-Aug-14 10:30N 39°17' W 076°35'1 1.9
2019-Aug-14 09:58N 39°17' W 076°37'0 0.0
2019-Aug-14 09:28N 39°17' W 076°37'0 0.0
2019-Aug-14 09:01N 39°17' W 076°37'  

Dump ship's entire track history